LiveATC.Net - Listen to live air traffic control over the Internet!


ICAO: KSMF  IATA: SMF   Airport: Sacramento International Airport
City: Sacramento   State/Province: California
Country: United States   Continent: North America
KSMF METAR Weather: KSMF 111453Z 18004KT 10SM FEW150 21/12 A2996 RMK AO2 SLP145 T02060122 51016
KSMF Flight Activity (FlightAware)
KSMF Airport Info   (iFlightPlanner)
KSMF VFR Sectional Chart   (iFlightPlanner) 
KSMF IFR Low Chart   (iFlightPlanner) 

KSMF/KSAC App/Dep
Feed Status: DOWN
Last heard on: 2020-02-18 19:33:06 (143 days 20 hours 2 minutes ago)
Archive Access: KSMF/KSAC App/Dep
FacilityFrequency
NORCAL Approach/Departure123.700
NORCAL Approach/Departure125.100
NORCAL Approach/Departure125.400
NORCAL Approach/Departure127.400

NOTICE

Unauthorized use prohibited. See LiveATC.net Terms of Service


Airport/ARTCC Code
Frequency Search
(e.g., 124.400, 128.75)
Site-wide search
 


Browse Feeds
Top 50 Feeds
Coverage Map
Bad Weather Areas

LiveATC FAQ
Offer LiveATC feed
Contact LiveATC.net
Press Inquiries

LiveATC on iPhone
LiveATC on Android

Windows Phone
Windows 8/10

LiveATC Mobile
(Mobile browser)

ATC Audio Archives
Interesting Recordings

LiveATC Forums


Home Page
About LiveATC.net
Make a Donation
Terms of Use
Privacy Policy

Canadian Air Freqs

AIRMETs/SIGMETs

FAA Airport Status
Nat'l Airspace Status
Arrival Demand Charts


Server Software By:
Icecast.org
Liquidsoap